Harbin, China
Current Conditions -  °F | °C
As of 4:00 AM on Monday 22 Dec 2014 (Local Time) from ZYHB Reporting Station
Clear Clear  
Wind Chill: -12°   Ceiling: Unl
Heat Index: -2°   Visibility: 4mi
Dew Point: -6°   Wind: 4mph
Humidity: 85%   Direction: 310°NW
Pressure: 29.88"   Gusts: NA
Location:  45.75°N, 126.65°E
Report Text: ZYHB 212000Z 31002MPS 7000 NSC M19/M21 Q1012 NOSIG
Loading
Personal Weather Stations






























Interactive Weather Map New forecast layout! Learn more

10-Day Weather Forecast

Advertisements
Track Severe Weather on mobile